sensor_id;sensor_type;location;lat;lon;timestamp;pressure;altitude;pressure_sealevel;temperature;humidity
72110;BME280;59983;52.010;5.420;2022-11-20T00:01:23;101432.50;;;-0.41;74.84
72110;BME280;59983;52.010;5.420;2022-11-20T00:03:54;101435.91;;;-0.45;74.06
72110;BME280;59983;52.010;5.420;2022-11-20T00:06:22;101442.78;;;-0.54;75.07
72110;BME280;59983;52.010;5.420;2022-11-20T00:08:49;101439.09;;;-0.48;74.61
72110;BME280;59983;52.010;5.420;2022-11-20T00:11:19;101430.03;;;-0.52;74.67
72110;BME280;59983;52.010;5.420;2022-11-20T00:13:47;101432.66;;;-0.58;75.05
72110;BME280;59983;52.010;5.420;2022-11-20T00:16:17;101424.69;;;-0.52;74.96
72110;BME280;59983;52.010;5.420;2022-11-20T00:18:44;101420.94;;;-0.57;74.87
72110;BME280;59983;52.010;5.420;2022-11-20T00:21:22;101423.63;;;-0.51;74.51
72110;BME280;59983;52.010;5.420;2022-11-20T00:23:50;101419.31;;;-0.58;74.63
72110;BME280;59983;52.010;5.420;2022-11-20T00:26:21;101436.84;;;-0.67;74.74
72110;BME280;59983;52.010;5.420;2022-11-20T00:28:54;101432.56;;;-0.68;75.02
72110;BME280;59983;52.010;5.420;2022-11-20T00:31:21;101435.56;;;-0.59;74.85
72110;BME280;59983;52.010;5.420;2022-11-20T00:33:48;101429.44;;;-0.60;75.17
72110;BME280;59983;52.010;5.420;2022-11-20T00:36:17;101426.72;;;-0.65;74.61
72110;BME280;59983;52.010;5.420;2022-11-20T00:38:45;101422.47;;;-0.66;74.70
72110;BME280;59983;52.010;5.420;2022-11-20T00:41:15;101426.44;;;-0.68;75.27
72110;BME280;59983;52.010;5.420;2022-11-20T00:43:42;101418.72;;;-0.70;75.27
72110;BME280;59983;52.010;5.420;2022-11-20T00:46:12;101416.06;;;-0.70;75.31
72110;BME280;59983;52.010;5.420;2022-11-20T00:48:39;101417.59;;;-0.74;75.32
72110;BME280;59983;52.010;5.420;2022-11-20T00:51:06;101415.25;;;-0.70;75.11
72110;BME280;59983;52.010;5.420;2022-11-20T00:53:33;101415.75;;;-0.73;75.58
72110;BME280;59983;52.010;5.420;2022-11-20T00:56:02;101414.94;;;-0.74;75.43
72110;BME280;59983;52.010;5.420;2022-11-20T00:58:37;101411.13;;;-0.83;75.39
72110;BME280;59983;52.010;5.420;2022-11-20T01:01:12;101408.16;;;-0.92;75.74
72110;BME280;59983;52.010;5.420;2022-11-20T01:03:48;101405.75;;;-0.93;76.02
72110;BME280;59983;52.010;5.420;2022-11-20T01:06:20;101405.22;;;-0.90;75.67
72110;BME280;59983;52.010;5.420;2022-11-20T01:08:49;101403.34;;;-0.90;76.03
72110;BME280;59983;52.010;5.420;2022-11-20T01:11:19;101399.56;;;-0.99;75.99
72110;BME280;59983;52.010;5.420;2022-11-20T01:13:48;101405.91;;;-1.05;75.82
72110;BME280;59983;52.010;5.420;2022-11-20T01:16:32;101409.88;;;-1.07;75.74
72110;BME280;59983;52.010;5.420;2022-11-20T01:19:01;101414.69;;;-1.04;76.33
72110;BME280;59983;52.010;5.420;2022-11-20T01:21:31;101413.09;;;-1.05;76.35
72110;BME280;59983;52.010;5.420;2022-11-20T01:23:58;101416.78;;;-1.06;75.89
72110;BME280;59983;52.010;5.420;2022-11-20T01:26:28;101411.31;;;-0.95;76.67
72110;BME280;59983;52.010;5.420;2022-11-20T01:28:55;101413.97;;;-0.95;76.40
72110;BME280;59983;52.010;5.420;2022-11-20T01:31:24;101404.50;;;-0.80;75.72
72110;BME280;59983;52.010;5.420;2022-11-20T01:33:54;101402.81;;;-0.92;76.04
72110;BME280;59983;52.010;5.420;2022-11-20T01:36:22;101391.56;;;-0.99;75.71
72110;BME280;59983;52.010;5.420;2022-11-20T01:38:57;101401.41;;;-0.99;76.31
72110;BME280;59983;52.010;5.420;2022-11-20T01:41:25;101409.16;;;-0.98;75.72
72110;BME280;59983;52.010;5.420;2022-11-20T01:44:13;101398.72;;;-1.04;76.23
72110;BME280;59983;52.010;5.420;2022-11-20T01:47:03;101402.75;;;-1.02;75.96
72110;BME280;59983;52.010;5.420;2022-11-20T01:49:40;101395.97;;;-1.15;76.21
72110;BME280;59983;52.010;5.420;2022-11-20T01:52:18;101394.06;;;-1.19;76.07
72110;BME280;59983;52.010;5.420;2022-11-20T01:54:50;101403.19;;;-1.10;75.94
72110;BME280;59983;52.010;5.420;2022-11-20T01:57:18;101403.72;;;-1.13;76.20
72110;BME280;59983;52.010;5.420;2022-11-20T01:59:52;101402.09;;;-1.14;76.29
72110;BME280;59983;52.010;5.420;2022-11-20T02:02:21;101405.31;;;-1.12;75.98
72110;BME280;59983;52.010;5.420;2022-11-20T02:04:49;101411.69;;;-1.13;75.80
72110;BME280;59983;52.010;5.420;2022-11-20T02:07:18;101407.44;;;-1.14;76.51
72110;BME280;59983;52.010;5.420;2022-11-20T02:09:45;101399.59;;;-1.26;76.03
72110;BME280;59983;52.010;5.420;2022-11-20T02:12:12;101403.31;;;-1.27;76.21
72110;BME280;59983;52.010;5.420;2022-11-20T02:14:58;101399.59;;;-1.26;76.17
72110;BME280;59983;52.010;5.420;2022-11-20T02:17:25;101397.94;;;-1.32;76.18
72110;BME280;59983;52.010;5.420;2022-11-20T02:19:52;101397.38;;;-1.34;76.75
72110;BME280;59983;52.010;5.420;2022-11-20T02:22:45;101394.69;;;-1.39;76.63
72110;BME280;59983;52.010;5.420;2022-11-20T02:25:14;101393.63;;;-1.38;77.17
72110;BME280;59983;52.010;5.420;2022-11-20T02:27:41;101377.16;;;-1.35;76.67
72110;BME280;59983;52.010;5.420;2022-11-20T02:30:08;101375.50;;;-1.41;76.59
72110;BME280;59983;52.010;5.420;2022-11-20T02:32:37;101372.88;;;-1.36;77.36
72110;BME280;59983;52.010;5.420;2022-11-20T02:37:44;101360.59;;;-1.42;76.62
72110;BME280;59983;52.010;5.420;2022-11-20T02:40:11;101359.38;;;-1.29;77.49
72110;BME280;59983;52.010;5.420;2022-11-20T02:42:38;101364.72;;;-1.29;76.59
72110;BME280;59983;52.010;5.420;2022-11-20T02:45:05;101366.50;;;-1.35;77.17
72110;BME280;59983;52.010;5.420;2022-11-20T02:47:32;101368.13;;;-1.34;76.07
72110;BME280;59983;52.010;5.420;2022-11-20T02:49:58;101377.03;;;-1.50;76.73
72110;BME280;59983;52.010;5.420;2022-11-20T02:52:25;101368.00;;;-1.49;76.79
72110;BME280;59983;52.010;5.420;2022-11-20T02:54:52;101375.81;;;-1.37;76.89
72110;BME280;59983;52.010;5.420;2022-11-20T02:57:19;101377.13;;;-1.40;77.35
72110;BME280;59983;52.010;5.420;2022-11-20T02:59:45;101379.53;;;-1.38;77.05
72110;BME280;59983;52.010;5.420;2022-11-20T03:02:12;101379.53;;;-1.38;76.39
72110;BME280;59983;52.010;5.420;2022-11-20T03:04:38;101365.41;;;-1.39;76.29
72110;BME280;59983;52.010;5.420;2022-11-20T03:07:04;101368.47;;;-1.52;76.59
72110;BME280;59983;52.010;5.420;2022-11-20T03:09:31;101365.25;;;-1.54;76.47
72110;BME280;59983;52.010;5.420;2022-11-20T03:11:58;101358.88;;;-1.53;76.80
72110;BME280;59983;52.010;5.420;2022-11-20T03:14:24;101360.34;;;-1.40;76.15
72110;BME280;59983;52.010;5.420;2022-11-20T03:16:50;101362.75;;;-1.39;75.67
72110;BME280;59983;52.010;5.420;2022-11-20T03:19:17;101359.03;;;-1.65;75.10
72110;BME280;59983;52.010;5.420;2022-11-20T03:21:44;101360.97;;;-1.82;75.47
72110;BME280;59983;52.010;5.420;2022-11-20T03:24:10;101360.38;;;-1.89;76.39
72110;BME280;59983;52.010;5.420;2022-11-20T03:26:38;101358.59;;;-1.84;76.27
72110;BME280;59983;52.010;5.420;2022-11-20T03:29:05;101348.50;;;-1.82;76.41
72110;BME280;59983;52.010;5.420;2022-11-20T03:31:35;101353.00;;;-1.82;76.42
72110;BME280;59983;52.010;5.420;2022-11-20T03:34:03;101359.13;;;-1.82;76.98
72110;BME280;59983;52.010;5.420;2022-11-20T03:36:30;101352.56;;;-1.74;77.33
72110;BME280;59983;52.010;5.420;2022-11-20T03:38:57;101354.09;;;-1.78;77.40
72110;BME280;59983;52.010;5.420;2022-11-20T03:41:26;101354.63;;;-1.81;76.75
72110;BME280;59983;52.010;5.420;2022-11-20T03:43:58;101355.94;;;-1.84;75.92
72110;BME280;59983;52.010;5.420;2022-11-20T03:46:26;101346.97;;;-2.00;75.95
72110;BME280;59983;52.010;5.420;2022-11-20T03:48:53;101338.47;;;-1.96;76.21
72110;BME280;59983;52.010;5.420;2022-11-20T03:51:27;101332.75;;;-2.10;76.52
72110;BME280;59983;52.010;5.420;2022-11-20T03:53:56;101339.13;;;-2.11;76.72
72110;BME280;59983;52.010;5.420;2022-11-20T03:56:26;101341.84;;;-2.06;77.48
72110;BME280;59983;52.010;5.420;2022-11-20T03:58:53;101336.59;;;-2.01;77.13
72110;BME280;59983;52.010;5.420;2022-11-20T04:01:22;101326.94;;;-2.07;77.59
72110;BME280;59983;52.010;5.420;2022-11-20T04:03:51;101331.47;;;-2.08;77.74
72110;BME280;59983;52.010;5.420;2022-11-20T04:06:24;101323.75;;;-2.09;77.39
72110;BME280;59983;52.010;5.420;2022-11-20T04:08:51;101328.19;;;-2.15;77.45
72110;BME280;59983;52.010;5.420;2022-11-20T04:11:21;101321.09;;;-2.09;77.45
72110;BME280;59983;52.010;5.420;2022-11-20T04:13:51;101320.56;;;-2.06;78.07
72110;BME280;59983;52.010;5.420;2022-11-20T04:16:18;101321.91;;;-2.04;77.80
72110;BME280;59983;52.010;5.420;2022-11-20T04:18:44;101325.88;;;-2.06;77.39
72110;BME280;59983;52.010;5.420;2022-11-20T04:21:11;101324.78;;;-2.10;77.76
72110;BME280;59983;52.010;5.420;2022-11-20T04:23:38;101319.41;;;-2.15;77.63
72110;BME280;59983;52.010;5.420;2022-11-20T04:26:10;101317.81;;;-2.16;77.52
72110;BME280;59983;52.010;5.420;2022-11-20T04:28:37;101318.06;;;-2.18;77.63
72110;BME280;59983;52.010;5.420;2022-11-20T04:31:09;101316.94;;;-2.22;78.11
72110;BME280;59983;52.010;5.420;2022-11-20T04:33:37;101305.81;;;-2.19;78.10
72110;BME280;59983;52.010;5.420;2022-11-20T04:36:15;101311.00;;;-2.07;77.86
72110;BME280;59983;52.010;5.420;2022-11-20T04:38:42;101304.34;;;-2.10;77.53
72110;BME280;59983;52.010;5.420;2022-11-20T04:41:17;101301.94;;;-2.11;77.51
72110;BME280;59983;52.010;5.420;2022-11-20T04:43:51;101297.91;;;-2.14;77.44
72110;BME280;59983;52.010;5.420;2022-11-20T04:46:20;101292.53;;;-2.19;78.04
72110;BME280;59983;52.010;5.420;2022-11-20T04:48:47;101289.13;;;-2.14;77.75
72110;BME280;59983;52.010;5.420;2022-11-20T04:51:14;101287.59;;;-2.10;77.31
72110;BME280;59983;52.010;5.420;2022-11-20T04:53:41;101288.31;;;-2.15;76.98
72110;BME280;59983;52.010;5.420;2022-11-20T04:56:09;101291.59;;;-2.08;77.98
72110;BME280;59983;52.010;5.420;2022-11-20T04:58:37;101288.50;;;-2.00;77.52
72110;BME280;59983;52.010;5.420;2022-11-20T05:01:13;101293.63;;;-1.93;77.02
72110;BME280;59983;52.010;5.420;2022-11-20T05:03:40;101295.25;;;-2.14;76.75
72110;BME280;59983;52.010;5.420;2022-11-20T05:06:09;101292.78;;;-2.20;77.30
72110;BME280;59983;52.010;5.420;2022-11-20T05:08:36;101295.75;;;-2.17;77.74
72110;BME280;59983;52.010;5.420;2022-11-20T05:11:11;101279.81;;;-2.17;77.57
72110;BME280;59983;52.010;5.420;2022-11-20T05:13:38;101278.69;;;-2.21;77.71
72110;BME280;59983;52.010;5.420;2022-11-20T05:16:10;101270.16;;;-2.23;77.69
72110;BME280;59983;52.010;5.420;2022-11-20T05:18:38;101274.19;;;-2.20;77.40
72110;BME280;59983;52.010;5.420;2022-11-20T05:21:05;101266.16;;;-2.25;77.47
72110;BME280;59983;52.010;5.420;2022-11-20T05:23:33;101261.38;;;-2.23;77.65
72110;BME280;59983;52.010;5.420;2022-11-20T05:26:00;101271.28;;;-2.19;77.51
72110;BME280;59983;52.010;5.420;2022-11-20T05:28:28;101265.09;;;-2.24;77.17
72110;BME280;59983;52.010;5.420;2022-11-20T05:30:55;101253.22;;;-2.17;77.60
72110;BME280;59983;52.010;5.420;2022-11-20T05:33:23;101259.59;;;-2.18;76.88
72110;BME280;59983;52.010;5.420;2022-11-20T05:35:49;101259.50;;;-2.28;77.04
72110;BME280;59983;52.010;5.420;2022-11-20T05:38:16;101255.25;;;-2.29;77.40
72110;BME280;59983;52.010;5.420;2022-11-20T05:40:42;101243.03;;;-2.25;77.47
72110;BME280;59983;52.010;5.420;2022-11-20T05:43:09;101247.41;;;-2.14;77.53
72110;BME280;59983;52.010;5.420;2022-11-20T05:45:35;101253.22;;;-2.17;77.03
72110;BME280;59983;52.010;5.420;2022-11-20T05:48:02;101265.72;;;-2.17;76.72
72110;BME280;59983;52.010;5.420;2022-11-20T05:50:29;101263.31;;;-2.19;76.28
72110;BME280;59983;52.010;5.420;2022-11-20T05:52:58;101269.94;;;-2.43;76.00
72110;BME280;59983;52.010;5.420;2022-11-20T05:55:26;101272.50;;;-2.48;76.20
72110;BME280;59983;52.010;5.420;2022-11-20T05:57:53;101284.41;;;-2.56;76.22
72110;BME280;59983;52.010;5.420;2022-11-20T06:00:21;101287.47;;;-2.64;76.69
72110;BME280;59983;52.010;5.420;2022-11-20T06:02:47;101286.41;;;-2.63;76.82
72110;BME280;59983;52.010;5.420;2022-11-20T06:05:14;101288.06;;;-2.57;77.20
72110;BME280;59983;52.010;5.420;2022-11-20T06:07:40;101290.00;;;-2.52;77.17
72110;BME280;59983;52.010;5.420;2022-11-20T06:10:07;101296.75;;;-2.45;77.13
72110;BME280;59983;52.010;5.420;2022-11-20T06:12:34;101306.88;;;-2.42;76.96
72110;BME280;59983;52.010;5.420;2022-11-20T06:15:00;101309.16;;;-2.29;76.53
72110;BME280;59983;52.010;5.420;2022-11-20T06:17:27;101297.91;;;-2.36;76.13
72110;BME280;59983;52.010;5.420;2022-11-20T06:19:53;101301.44;;;-2.52;76.42
72110;BME280;59983;52.010;5.420;2022-11-20T06:22:20;101301.50;;;-2.47;76.58
72110;BME280;59983;52.010;5.420;2022-11-20T06:24:47;101299.28;;;-2.55;76.84
72110;BME280;59983;52.010;5.420;2022-11-20T06:27:13;101294.50;;;-2.53;76.86
72110;BME280;59983;52.010;5.420;2022-11-20T06:29:40;101293.63;;;-2.59;76.92
72110;BME280;59983;52.010;5.420;2022-11-20T06:32:06;101287.59;;;-2.54;77.02
72110;BME280;59983;52.010;5.420;2022-11-20T06:34:33;101290.72;;;-2.57;77.31
72110;BME280;59983;52.010;5.420;2022-11-20T06:36:59;101286.03;;;-2.50;77.33
72110;BME280;59983;52.010;5.420;2022-11-20T06:39:26;101293.53;;;-2.47;77.54
72110;BME280;59983;52.010;5.420;2022-11-20T06:41:52;101290.38;;;-2.44;77.49
72110;BME280;59983;52.010;5.420;2022-11-20T06:44:24;101283.47;;;-2.45;77.53
72110;BME280;59983;52.010;5.420;2022-11-20T06:46:50;101292.06;;;-2.38;77.52
72110;BME280;59983;52.010;5.420;2022-11-20T06:49:17;101291.00;;;-2.37;77.23
72110;BME280;59983;52.010;5.420;2022-11-20T06:51:43;101296.50;;;-2.43;77.04
72110;BME280;59983;52.010;5.420;2022-11-20T06:54:10;101299.41;;;-2.45;77.54
72110;BME280;59983;52.010;5.420;2022-11-20T06:56:36;101292.72;;;-2.47;77.71
72110;BME280;59983;52.010;5.420;2022-11-20T06:59:07;101291.97;;;-2.43;77.47
72110;BME280;59983;52.010;5.420;2022-11-20T07:01:33;101282.16;;;-2.42;77.06
72110;BME280;59983;52.010;5.420;2022-11-20T07:04:01;101276.91;;;-2.37;77.59
72110;BME280;59983;52.010;5.420;2022-11-20T07:06:28;101276.28;;;-2.44;77.58
72110;BME280;59983;52.010;5.420;2022-11-20T07:08:54;101268.81;;;-2.47;77.84
72110;BME280;59983;52.010;5.420;2022-11-20T07:11:21;101274.19;;;-2.42;77.70
72110;BME280;59983;52.010;5.420;2022-11-20T07:13:47;101273.13;;;-2.41;77.86
72110;BME280;59983;52.010;5.420;2022-11-20T07:16:15;101264.19;;;-2.35;77.80
72110;BME280;59983;52.010;5.420;2022-11-20T07:18:41;101264.19;;;-2.35;77.52
72110;BME280;59983;52.010;5.420;2022-11-20T07:21:15;101263.00;;;-2.22;77.67
72110;BME280;59983;52.010;5.420;2022-11-20T07:23:41;101254.31;;;-2.13;77.93
72110;BME280;59983;52.010;5.420;2022-11-20T07:26:10;101267.88;;;-2.14;78.06
72110;BME280;59983;52.010;5.420;2022-11-20T07:28:37;101262.88;;;-2.11;77.93
72110;BME280;59983;52.010;5.420;2022-11-20T07:31:04;101268.47;;;-2.07;78.15
72110;BME280;59983;52.010;5.420;2022-11-20T07:33:33;101264.47;;;-2.10;78.35
72110;BME280;59983;52.010;5.420;2022-11-20T07:35:59;101259.25;;;-2.00;78.49
72110;BME280;59983;52.010;5.420;2022-11-20T07:38:26;101267.59;;;-1.91;78.54
72110;BME280;59983;52.010;5.420;2022-11-20T07:40:54;101255.63;;;-1.88;78.53
72110;BME280;59983;52.010;5.420;2022-11-20T07:43:21;101255.69;;;-1.83;78.58
72110;BME280;59983;52.010;5.420;2022-11-20T07:45:48;101257.09;;;-1.76;78.94
72110;BME280;59983;52.010;5.420;2022-11-20T07:48:14;101263.06;;;-1.63;79.14
72110;BME280;59983;52.010;5.420;2022-11-20T07:50:41;101251.91;;;-1.60;79.54
72110;BME280;59983;52.010;5.420;2022-11-20T07:53:07;101259.47;;;-1.47;79.86
72110;BME280;59983;52.010;5.420;2022-11-20T07:55:34;101268.28;;;-1.42;79.61
72110;BME280;59983;52.010;5.420;2022-11-20T07:58:00;101264.06;;;-1.37;80.09
72110;BME280;59983;52.010;5.420;2022-11-20T08:00:27;101266.78;;;-1.27;79.65
72110;BME280;59983;52.010;5.420;2022-11-20T08:02:54;101271.06;;;-1.26;79.27
72110;BME280;59983;52.010;5.420;2022-11-20T08:05:20;101260.94;;;-1.24;79.93
72110;BME280;59983;52.010;5.420;2022-11-20T08:07:47;101254.06;;;-1.20;79.80
72110;BME280;59983;52.010;5.420;2022-11-20T08:10:15;101258.13;;;-1.07;80.41
72110;BME280;59983;52.010;5.420;2022-11-20T08:12:47;101248.69;;;-0.88;80.30
72110;BME280;59983;52.010;5.420;2022-11-20T08:15:32;101249.31;;;-0.66;80.22
72110;BME280;59983;52.010;5.420;2022-11-20T08:18:07;101238.22;;;-0.52;80.21
72110;BME280;59983;52.010;5.420;2022-11-20T08:20:54;101245.16;;;-0.36;80.26
72110;BME280;59983;52.010;5.420;2022-11-20T08:23:22;101252.38;;;-0.32;80.75
72110;BME280;59983;52.010;5.420;2022-11-20T08:25:49;101243.66;;;-0.17;80.14
72110;BME280;59983;52.010;5.420;2022-11-20T08:28:17;101247.13;;;-0.16;80.05
72110;BME280;59983;52.010;5.420;2022-11-20T08:30:48;101245.22;;;-0.21;80.44
72110;BME280;59983;52.010;5.420;2022-11-20T08:33:16;101250.28;;;-0.19;80.95
72110;BME280;59983;52.010;5.420;2022-11-20T08:35:43;101243.66;;;-0.12;80.52
72110;BME280;59983;52.010;5.420;2022-11-20T08:38:10;101247.69;;;0.01;80.42
72110;BME280;59983;52.010;5.420;2022-11-20T08:40:36;101254.06;;;0.05;80.56
72110;BME280;59983;52.010;5.420;2022-11-20T08:43:03;101256.25;;;0.18;81.04
72110;BME280;59983;52.010;5.420;2022-11-20T08:45:30;101258.66;;;0.30;81.03
72110;BME280;59983;52.010;5.420;2022-11-20T08:48:02;101253.84;;;0.42;80.81
72110;BME280;59983;52.010;5.420;2022-11-20T08:50:29;101242.13;;;0.48;80.21
72110;BME280;59983;52.010;5.420;2022-11-20T08:53:04;101242.09;;;0.43;80.68
72110;BME280;59983;52.010;5.420;2022-11-20T08:55:31;101250.66;;;0.45;80.08
72110;BME280;59983;52.010;5.420;2022-11-20T08:58:03;101243.97;;;0.48;80.37
72110;BME280;59983;52.010;5.420;2022-11-20T09:00:29;101243.72;;;0.49;80.54
72110;BME280;59983;52.010;5.420;2022-11-20T09:02:56;101249.06;;;0.54;81.09
72110;BME280;59983;52.010;5.420;2022-11-20T09:05:23;101246.38;;;0.65;80.60
72110;BME280;59983;52.010;5.420;2022-11-20T09:07:50;101244.50;;;0.70;80.73
72110;BME280;59983;52.010;5.420;2022-11-20T09:10:16;101236.75;;;0.74;80.49
72110;BME280;59983;52.010;5.420;2022-11-20T09:12:53;101235.97;;;0.73;80.07
72110;BME280;59983;52.010;5.420;2022-11-20T09:15:21;101230.88;;;0.82;80.61
72110;BME280;59983;52.010;5.420;2022-11-20T09:18:00;101221.78;;;0.93;80.95
72110;BME280;59983;52.010;5.420;2022-11-20T09:20:28;101214.25;;;1.10;80.64
72110;BME280;59983;52.010;5.420;2022-11-20T09:22:56;101212.59;;;1.20;80.46
72110;BME280;59983;52.010;5.420;2022-11-20T09:25:23;101213.88;;;1.32;79.82
72110;BME280;59983;52.010;5.420;2022-11-20T09:27:55;101216.31;;;1.34;79.96
72110;BME280;59983;52.010;5.420;2022-11-20T09:30:22;101214.13;;;1.41;79.71
72110;BME280;59983;52.010;5.420;2022-11-20T09:32:48;101202.91;;;1.44;79.59
72110;BME280;59983;52.010;5.420;2022-11-20T09:35:15;101200.75;;;1.46;79.46
72110;BME280;59983;52.010;5.420;2022-11-20T09:37:42;101203.88;;;1.58;79.61
72110;BME280;59983;52.010;5.420;2022-11-20T09:40:19;101195.84;;;1.63;79.09
72110;BME280;59983;52.010;5.420;2022-11-20T09:43:10;101195.84;;;1.63;78.65
72110;BME280;59983;52.010;5.420;2022-11-20T09:45:54;101198.22;;;1.65;79.02
72110;BME280;59983;52.010;5.420;2022-11-20T09:48:48;101177.63;;;1.70;78.72
72110;BME280;59983;52.010;5.420;2022-11-20T09:54:19;101180.50;;;1.79;78.47
72110;BME280;59983;52.010;5.420;2022-11-20T09:56:59;101181.53;;;1.88;78.32
72110;BME280;59983;52.010;5.420;2022-11-20T09:59:39;101170.47;;;2.00;78.23
72110;BME280;59983;52.010;5.420;2022-11-20T10:02:16;101174.72;;;2.01;77.77
72110;BME280;59983;52.010;5.420;2022-11-20T10:04:48;101177.38;;;2.06;77.99
72110;BME280;59983;52.010;5.420;2022-11-20T10:10:40;101159.69;;;2.10;78.53
72110;BME280;59983;52.010;5.420;2022-11-20T10:17:02;101163.13;;;2.16;77.93
72110;BME280;59983;52.010;5.420;2022-11-20T10:24:51;101136.16;;;2.36;78.18
72110;BME280;59983;52.010;5.420;2022-11-20T10:30:03;101140.69;;;2.41;78.20
72110;BME280;59983;52.010;5.420;2022-11-20T10:32:54;101134.47;;;2.45;77.77
72110;BME280;59983;52.010;5.420;2022-11-20T10:35:26;101121.44;;;2.39;78.19
72110;BME280;59983;52.010;5.420;2022-11-20T10:37:58;101111.47;;;2.44;78.63
72110;BME280;59983;52.010;5.420;2022-11-20T10:40:35;101108.16;;;2.52;78.89
72110;BME280;59983;52.010;5.420;2022-11-20T10:43:12;101102.69;;;2.63;79.07
72110;BME280;59983;52.010;5.420;2022-11-20T10:46:01;101098.31;;;2.72;78.93
72110;BME280;59983;52.010;5.420;2022-11-20T10:48:30;101093.72;;;2.77;78.69
72110;BME280;59983;52.010;5.420;2022-11-20T10:51:25;101084.38;;;2.75;78.95
72110;BME280;59983;52.010;5.420;2022-11-20T10:56:52;101067.53;;;2.93;78.55
72110;BME280;59983;52.010;5.420;2022-11-20T11:02:00;101058.78;;;3.06;78.53
72110;BME280;59983;52.010;5.420;2022-11-20T11:04:32;101061.31;;;3.17;78.61
72110;BME280;59983;52.010;5.420;2022-11-20T11:07:08;101048.34;;;3.24;78.72
72110;BME280;59983;52.010;5.420;2022-11-20T11:09:41;101046.41;;;3.29;79.07
72110;BME280;59983;52.010;5.420;2022-11-20T11:12:09;101042.16;;;3.42;79.17
72110;BME280;59983;52.010;5.420;2022-11-20T11:14:51;101035.44;;;3.45;79.12
72110;BME280;59983;52.010;5.420;2022-11-20T11:17:47;101026.00;;;3.47;78.58
72110;BME280;59983;52.010;5.420;2022-11-20T11:20:19;101022.75;;;3.50;79.19
72110;BME280;59983;52.010;5.420;2022-11-20T11:22:49;101014.81;;;3.59;79.26
72110;BME280;59983;52.010;5.420;2022-11-20T11:25:35;101004.72;;;3.69;80.00
72110;BME280;59983;52.010;5.420;2022-11-20T11:28:04;101006.53;;;3.74;79.32
72110;BME280;59983;52.010;5.420;2022-11-20T11:30:42;101011.00;;;3.79;79.84
72110;BME280;59983;52.010;5.420;2022-11-20T11:33:11;101003.47;;;3.81;79.28
72110;BME280;59983;52.010;5.420;2022-11-20T11:35:45;101007.22;;;3.80;79.39
72110;BME280;59983;52.010;5.420;2022-11-20T11:38:21;101000.00;;;3.80;79.69
72110;BME280;59983;52.010;5.420;2022-11-20T11:40:49;100998.69;;;3.78;80.30
72110;BME280;59983;52.010;5.420;2022-11-20T11:43:24;100992.13;;;3.84;79.92
72110;BME280;59983;52.010;5.420;2022-11-20T11:46:31;100982.81;;;3.95;80.55
72110;BME280;59983;52.010;5.420;2022-11-20T11:48:59;100980.34;;;3.98;80.47
72110;BME280;59983;52.010;5.420;2022-11-20T11:51:42;100985.41;;;4.00;80.51
72110;BME280;59983;52.010;5.420;2022-11-20T11:54:23;100983.22;;;4.02;80.58
72110;BME280;59983;52.010;5.420;2022-11-20T11:56:51;100973.78;;;4.05;80.77
72110;BME280;59983;52.010;5.420;2022-11-20T11:59:39;100963.75;;;4.10;81.43
72110;BME280;59983;52.010;5.420;2022-11-20T12:02:22;100945.94;;;4.14;81.64
72110;BME280;59983;52.010;5.420;2022-11-20T12:07:46;100949.72;;;4.13;81.97
72110;BME280;59983;52.010;5.420;2022-11-20T12:10:21;100945.44;;;4.12;82.33
72110;BME280;59983;52.010;5.420;2022-11-20T12:13:18;100949.63;;;4.05;82.32
72110;BME280;59983;52.010;5.420;2022-11-20T12:15:47;100944.94;;;4.10;83.04
72110;BME280;59983;52.010;5.420;2022-11-20T12:18:19;100930.63;;;4.15;83.11
72110;BME280;59983;52.010;5.420;2022-11-20T12:21:35;100924.97;;;4.16;82.27
72110;BME280;59983;52.010;5.420;2022-11-20T12:43:37;100871.69;;;4.10;82.47
72110;BME280;59983;52.010;5.420;2022-11-20T12:49:24;100855.88;;;4.08;82.02
72110;BME280;59983;52.010;5.420;2022-11-20T12:52:15;100850.44;;;4.00;82.57
72110;BME280;59983;52.010;5.420;2022-11-20T13:00:21;100840.88;;;4.07;83.68
72110;BME280;59983;52.010;5.420;2022-11-20T13:06:17;100845.47;;;4.07;83.84
72110;BME280;59983;52.010;5.420;2022-11-20T13:08:50;100840.97;;;4.16;83.97
72110;BME280;59983;52.010;5.420;2022-11-20T13:19:05;100819.97;;;4.18;84.35
72110;BME280;59983;52.010;5.420;2022-11-20T13:21:38;100806.25;;;4.19;84.35
72110;BME280;59983;52.010;5.420;2022-11-20T13:24:29;100797.78;;;4.26;84.11
72110;BME280;59983;52.010;5.420;2022-11-20T13:29:29;100799.47;;;4.22;84.06
72110;BME280;59983;52.010;5.420;2022-11-20T13:32:12;100796.31;;;4.20;83.69
72110;BME280;59983;52.010;5.420;2022-11-20T13:34:54;100790.16;;;4.19;84.46
72110;BME280;59983;52.010;5.420;2022-11-20T13:37:34;100777.41;;;4.25;84.17
72110;BME280;59983;52.010;5.420;2022-11-20T13:42:40;100753.84;;;4.22;84.77
72110;BME280;59983;52.010;5.420;2022-11-20T13:45:24;100754.16;;;4.20;84.59
72110;BME280;59983;52.010;5.420;2022-11-20T13:47:52;100749.50;;;4.12;84.81
72110;BME280;59983;52.010;5.420;2022-11-20T13:50:40;100754.78;;;4.17;85.21
72110;BME280;59983;52.010;5.420;2022-11-20T13:53:15;100747.69;;;4.21;85.09
72110;BME280;59983;52.010;5.420;2022-11-20T13:59:33;100756.91;;;4.29;84.74
72110;BME280;59983;52.010;5.420;2022-11-20T14:01:55;100752.31;;;4.30;85.28
72110;BME280;59983;52.010;5.420;2022-11-20T14:04:35;100765.13;;;4.33;85.07
72110;BME280;59983;52.010;5.420;2022-11-20T14:07:05;100766.44;;;4.35;85.50
72110;BME280;59983;52.010;5.420;2022-11-20T14:09:33;100752.53;;;4.33;85.73
72110;BME280;59983;52.010;5.420;2022-11-20T14:12:02;100740.97;;;4.33;86.22
72110;BME280;59983;52.010;5.420;2022-11-20T14:14:30;100719.69;;;4.36;85.92
72110;BME280;59983;52.010;5.420;2022-11-20T14:17:33;100704.47;;;4.32;85.39
72110;BME280;59983;52.010;5.420;2022-11-20T14:20:05;100695.63;;;4.31;86.18
72110;BME280;59983;52.010;5.420;2022-11-20T14:22:33;100707.16;;;4.32;85.93
72110;BME280;59983;52.010;5.420;2022-11-20T14:27:45;100699.25;;;4.26;86.47
72110;BME280;59983;52.010;5.420;2022-11-20T14:30:16;100695.25;;;4.24;86.63
72110;BME280;59983;52.010;5.420;2022-11-20T14:32:44;100686.88;;;4.17;87.12